sensor_id;sensor_type;location;lat;lon;timestamp;pressure;altitude;pressure_sealevel;temperature;humidity
31519;BME280;18129;45.082;13.644;2023-03-20T00:00:11;101611.64;;;13.02;98.66
31519;BME280;18129;45.082;13.644;2023-03-20T00:02:41;101614.49;;;13.55;98.70
31519;BME280;18129;45.082;13.644;2023-03-20T00:05:16;101614.01;;;13.46;99.98
31519;BME280;18129;45.082;13.644;2023-03-20T00:07:43;101611.56;;;13.11;99.68
31519;BME280;18129;45.082;13.644;2023-03-20T00:10:10;101611.45;;;13.24;99.45
31519;BME280;18129;45.082;13.644;2023-03-20T00:12:38;101607.87;;;13.09;100.00
31519;BME280;18129;45.082;13.644;2023-03-20T00:15:11;101601.21;;;13.51;100.00
31519;BME280;18129;45.082;13.644;2023-03-20T00:17:43;101600.86;;;13.42;100.00
31519;BME280;18129;45.082;13.644;2023-03-20T00:20:13;101596.95;;;13.45;100.00
31519;BME280;18129;45.082;13.644;2023-03-20T00:22:41;101597.80;;;13.84;100.00
31519;BME280;18129;45.082;13.644;2023-03-20T00:25:12;101598.47;;;12.98;100.00
31519;BME280;18129;45.082;13.644;2023-03-20T00:27:40;101597.97;;;13.18;100.00
31519;BME280;18129;45.082;13.644;2023-03-20T00:30:17;101594.59;;;13.68;100.00
31519;BME280;18129;45.082;13.644;2023-03-20T00:32:45;101595.41;;;12.73;100.00
31519;BME280;18129;45.082;13.644;2023-03-20T00:35:17;101591.44;;;13.16;100.00
31519;BME280;18129;45.082;13.644;2023-03-20T00:37:44;101586.25;;;13.52;100.00
31519;BME280;18129;45.082;13.644;2023-03-20T00:40:12;101582.97;;;13.23;100.00
31519;BME280;18129;45.082;13.644;2023-03-20T00:42:39;101581.46;;;13.53;100.00
31519;BME280;18129;45.082;13.644;2023-03-20T00:45:12;101581.28;;;13.57;100.00
31519;BME280;18129;45.082;13.644;2023-03-20T00:47:41;101580.07;;;13.52;100.00
31519;BME280;18129;45.082;13.644;2023-03-20T00:50:15;101573.10;;;13.43;100.00
31519;BME280;18129;45.082;13.644;2023-03-20T00:52:43;101575.12;;;13.77;100.00
31519;BME280;18129;45.082;13.644;2023-03-20T00:55:11;101575.79;;;13.57;100.00
31519;BME280;18129;45.082;13.644;2023-03-20T00:57:41;101574.80;;;13.57;100.00
31519;BME280;18129;45.082;13.644;2023-03-20T01:00:20;101573.29;;;13.25;100.00
31519;BME280;18129;45.082;13.644;2023-03-20T01:02:48;101570.99;;;13.60;100.00
31519;BME280;18129;45.082;13.644;2023-03-20T01:05:17;101565.92;;;13.47;100.00
31519;BME280;18129;45.082;13.644;2023-03-20T01:07:44;101561.27;;;13.70;100.00
31519;BME280;18129;45.082;13.644;2023-03-20T01:10:12;101559.55;;;12.93;100.00
31519;BME280;18129;45.082;13.644;2023-03-20T01:12:39;101556.27;;;13.75;100.00
31519;BME280;18129;45.082;13.644;2023-03-20T01:15:16;101553.25;;;13.74;100.00
31519;BME280;18129;45.082;13.644;2023-03-20T01:17:44;101552.24;;;13.15;100.00
31519;BME280;18129;45.082;13.644;2023-03-20T01:20:20;101545.69;;;13.46;100.00
31519;BME280;18129;45.082;13.644;2023-03-20T01:22:48;101547.31;;;13.62;100.00
31519;BME280;18129;45.082;13.644;2023-03-20T01:25:16;101544.79;;;13.70;100.00
31519;BME280;18129;45.082;13.644;2023-03-20T01:27:45;101538.44;;;13.34;100.00
31519;BME280;18129;45.082;13.644;2023-03-20T01:30:19;101534.81;;;13.34;100.00
31519;BME280;18129;45.082;13.644;2023-03-20T01:32:46;101531.15;;;13.20;100.00
31519;BME280;18129;45.082;13.644;2023-03-20T01:35:17;101528.53;;;13.51;100.00
31519;BME280;18129;45.082;13.644;2023-03-20T01:37:45;101526.64;;;13.97;100.00
31519;BME280;18129;45.082;13.644;2023-03-20T01:40:20;101527.62;;;13.95;100.00
31519;BME280;18129;45.082;13.644;2023-03-20T01:42:50;101530.05;;;13.27;100.00
31519;BME280;18129;45.082;13.644;2023-03-20T01:45:21;101524.05;;;13.57;100.00
31519;BME280;18129;45.082;13.644;2023-03-20T01:47:48;101525.46;;;14.08;99.72
31519;BME280;18129;45.082;13.644;2023-03-20T01:50:23;101525.75;;;13.62;99.16
31519;BME280;18129;45.082;13.644;2023-03-20T01:52:55;101519.97;;;14.01;98.28
31519;BME280;18129;45.082;13.644;2023-03-20T01:55:24;101517.19;;;13.43;100.00
31519;BME280;18129;45.082;13.644;2023-03-20T01:57:53;101515.76;;;13.43;99.92
31519;BME280;18129;45.082;13.644;2023-03-20T02:00:23;101515.28;;;13.44;99.60
31519;BME280;18129;45.082;13.644;2023-03-20T02:02:51;101511.58;;;14.05;99.27
31519;BME280;18129;45.082;13.644;2023-03-20T02:05:20;101512.00;;;14.10;98.76
31519;BME280;18129;45.082;13.644;2023-03-20T02:07:54;101513.27;;;13.63;98.62
31519;BME280;18129;45.082;13.644;2023-03-20T02:10:22;101513.73;;;14.15;98.39
31519;BME280;18129;45.082;13.644;2023-03-20T02:12:51;101512.46;;;13.91;98.87
31519;BME280;18129;45.082;13.644;2023-03-20T02:15:19;101512.85;;;14.01;98.52
31519;BME280;18129;45.082;13.644;2023-03-20T02:17:46;101510.29;;;13.87;99.16
31519;BME280;18129;45.082;13.644;2023-03-20T02:20:22;101507.10;;;13.49;99.88
31519;BME280;18129;45.082;13.644;2023-03-20T02:23:26;101506.39;;;13.76;100.00
31519;BME280;18129;45.082;13.644;2023-03-20T02:26:10;101503.72;;;13.35;100.00
31519;BME280;18129;45.082;13.644;2023-03-20T02:31:32;101500.61;;;13.92;100.00
31519;BME280;18129;45.082;13.644;2023-03-20T02:34:15;101500.01;;;13.81;99.84
31519;BME280;18129;45.082;13.644;2023-03-20T02:37:23;101507.82;;;13.17;100.00
31519;BME280;18129;45.082;13.644;2023-03-20T02:40:04;101508.12;;;13.71;100.00
31519;BME280;18129;45.082;13.644;2023-03-20T02:42:39;101515.19;;;12.34;100.00
31519;BME280;18129;45.082;13.644;2023-03-20T02:45:16;101523.60;;;10.69;100.00
31519;BME280;18129;45.082;13.644;2023-03-20T02:47:50;101524.96;;;11.25;100.00
31519;BME280;18129;45.082;13.644;2023-03-20T02:50:24;101524.54;;;11.04;100.00
31519;BME280;18129;45.082;13.644;2023-03-20T02:52:59;101519.18;;;10.59;100.00
31519;BME280;18129;45.082;13.644;2023-03-20T02:55:34;101522.03;;;11.13;100.00
31519;BME280;18129;45.082;13.644;2023-03-20T02:58:09;101524.81;;;10.12;100.00
31519;BME280;18129;45.082;13.644;2023-03-20T03:00:40;101520.67;;;10.22;100.00
31519;BME280;18129;45.082;13.644;2023-03-20T03:03:15;101520.40;;;10.16;100.00
31519;BME280;18129;45.082;13.644;2023-03-20T03:05:49;101516.98;;;10.10;100.00
31519;BME280;18129;45.082;13.644;2023-03-20T03:08:21;101514.25;;;10.19;100.00
31519;BME280;18129;45.082;13.644;2023-03-20T03:10:52;101512.22;;;10.32;100.00
31519;BME280;18129;45.082;13.644;2023-03-20T03:13:26;101510.92;;;11.12;100.00
31519;BME280;18129;45.082;13.644;2023-03-20T03:15:58;101511.64;;;11.24;100.00
31519;BME280;18129;45.082;13.644;2023-03-20T03:18:27;101510.71;;;10.89;100.00
31519;BME280;18129;45.082;13.644;2023-03-20T03:20:58;101513.82;;;10.59;100.00
31519;BME280;18129;45.082;13.644;2023-03-20T03:23:30;101514.47;;;10.89;100.00
31519;BME280;18129;45.082;13.644;2023-03-20T03:25:59;101511.13;;;11.16;100.00
31519;BME280;18129;45.082;13.644;2023-03-20T03:28:31;101512.11;;;10.89;100.00
31519;BME280;18129;45.082;13.644;2023-03-20T03:30:59;101514.60;;;11.75;100.00
31519;BME280;18129;45.082;13.644;2023-03-20T03:33:28;101515.04;;;11.95;100.00
31519;BME280;18129;45.082;13.644;2023-03-20T03:36:04;101510.38;;;11.93;100.00
31519;BME280;18129;45.082;13.644;2023-03-20T03:38:39;101507.33;;;12.03;100.00
31519;BME280;18129;45.082;13.644;2023-03-20T03:41:18;101504.99;;;12.33;100.00
31519;BME280;18129;45.082;13.644;2023-03-20T03:43:52;101499.43;;;12.43;100.00
31519;BME280;18129;45.082;13.644;2023-03-20T03:46:25;101497.23;;;12.42;100.00
31519;BME280;18129;45.082;13.644;2023-03-20T03:48:56;101500.48;;;12.45;100.00
31519;BME280;18129;45.082;13.644;2023-03-20T03:51:28;101500.81;;;12.79;100.00
31519;BME280;18129;45.082;13.644;2023-03-20T03:53:59;101500.09;;;12.83;100.00
31519;BME280;18129;45.082;13.644;2023-03-20T03:56:31;101498.49;;;12.49;100.00
31519;BME280;18129;45.082;13.644;2023-03-20T03:59:04;101496.03;;;12.78;100.00
31519;BME280;18129;45.082;13.644;2023-03-20T04:01:34;101496.61;;;12.80;100.00
31519;BME280;18129;45.082;13.644;2023-03-20T04:04:05;101497.79;;;12.61;100.00
31519;BME280;18129;45.082;13.644;2023-03-20T04:06:33;101499.05;;;12.79;100.00
31519;BME280;18129;45.082;13.644;2023-03-20T04:09:00;101496.93;;;12.97;100.00
31519;BME280;18129;45.082;13.644;2023-03-20T04:11:27;101492.19;;;12.59;100.00
31519;BME280;18129;45.082;13.644;2023-03-20T04:13:54;101489.75;;;12.79;100.00
31519;BME280;18129;45.082;13.644;2023-03-20T04:16:23;101488.13;;;13.16;100.00
31519;BME280;18129;45.082;13.644;2023-03-20T04:18:50;101488.51;;;12.57;100.00
31519;BME280;18129;45.082;13.644;2023-03-20T04:21:18;101489.03;;;12.78;100.00
31519;BME280;18129;45.082;13.644;2023-03-20T04:23:45;101489.69;;;13.04;100.00
31519;BME280;18129;45.082;13.644;2023-03-20T04:26:13;101487.30;;;13.06;100.00
31519;BME280;18129;45.082;13.644;2023-03-20T04:28:40;101487.86;;;12.91;100.00
31519;BME280;18129;45.082;13.644;2023-03-20T04:31:07;101485.81;;;12.95;100.00
31519;BME280;18129;45.082;13.644;2023-03-20T04:33:35;101485.49;;;13.12;100.00
31519;BME280;18129;45.082;13.644;2023-03-20T04:36:03;101481.62;;;13.05;100.00
31519;BME280;18129;45.082;13.644;2023-03-20T04:38:30;101480.09;;;13.27;100.00
31519;BME280;18129;45.082;13.644;2023-03-20T04:40:58;101476.71;;;13.15;100.00
31519;BME280;18129;45.082;13.644;2023-03-20T04:43:24;101477.45;;;13.33;100.00
31519;BME280;18129;45.082;13.644;2023-03-20T04:45:53;101476.85;;;13.41;100.00
31519;BME280;18129;45.082;13.644;2023-03-20T04:48:20;101478.33;;;13.55;100.00
31519;BME280;18129;45.082;13.644;2023-03-20T04:50:47;101477.28;;;13.47;100.00
31519;BME280;18129;45.082;13.644;2023-03-20T04:53:14;101473.54;;;13.37;100.00
31519;BME280;18129;45.082;13.644;2023-03-20T04:55:43;101473.11;;;13.37;100.00
31519;BME280;18129;45.082;13.644;2023-03-20T04:58:10;101473.08;;;13.41;100.00
31519;BME280;18129;45.082;13.644;2023-03-20T05:00:37;101472.25;;;13.33;100.00
31519;BME280;18129;45.082;13.644;2023-03-20T05:03:05;101472.85;;;12.96;100.00
31519;BME280;18129;45.082;13.644;2023-03-20T05:05:32;101469.65;;;13.58;100.00
31519;BME280;18129;45.082;13.644;2023-03-20T05:08:00;101467.49;;;13.25;100.00
31519;BME280;18129;45.082;13.644;2023-03-20T05:10:27;101464.67;;;13.29;100.00
31519;BME280;18129;45.082;13.644;2023-03-20T05:12:55;101465.92;;;13.51;100.00
31519;BME280;18129;45.082;13.644;2023-03-20T05:15:22;101466.42;;;13.36;100.00
31519;BME280;18129;45.082;13.644;2023-03-20T05:17:50;101467.46;;;13.37;100.00
31519;BME280;18129;45.082;13.644;2023-03-20T05:20:18;101468.78;;;13.44;100.00
31519;BME280;18129;45.082;13.644;2023-03-20T05:22:48;101468.94;;;13.43;100.00
31519;BME280;18129;45.082;13.644;2023-03-20T05:25:15;101469.45;;;13.18;100.00
31519;BME280;18129;45.082;13.644;2023-03-20T05:27:44;101469.25;;;13.05;100.00
31519;BME280;18129;45.082;13.644;2023-03-20T05:30:11;101473.07;;;13.63;100.00
31519;BME280;18129;45.082;13.644;2023-03-20T05:32:39;101472.76;;;13.19;100.00
31519;BME280;18129;45.082;13.644;2023-03-20T05:35:07;101472.30;;;13.25;100.00
31519;BME280;18129;45.082;13.644;2023-03-20T05:37:35;101472.39;;;13.15;100.00
31519;BME280;18129;45.082;13.644;2023-03-20T05:40:04;101474.91;;;13.09;100.00
31519;BME280;18129;45.082;13.644;2023-03-20T05:42:31;101476.98;;;13.36;100.00
31519;BME280;18129;45.082;13.644;2023-03-20T05:44:59;101476.06;;;13.52;100.00
31519;BME280;18129;45.082;13.644;2023-03-20T05:47:25;101475.07;;;13.43;100.00
31519;BME280;18129;45.082;13.644;2023-03-20T05:49:53;101475.98;;;13.49;100.00
31519;BME280;18129;45.082;13.644;2023-03-20T05:52:20;101478.44;;;13.41;100.00
31519;BME280;18129;45.082;13.644;2023-03-20T05:54:48;101480.40;;;13.47;100.00
31519;BME280;18129;45.082;13.644;2023-03-20T05:57:15;101482.78;;;13.02;100.00
31519;BME280;18129;45.082;13.644;2023-03-20T05:59:43;101482.64;;;13.54;100.00
31519;BME280;18129;45.082;13.644;2023-03-20T06:02:09;101483.29;;;13.46;100.00
31519;BME280;18129;45.082;13.644;2023-03-20T06:04:37;101485.08;;;13.29;100.00
31519;BME280;18129;45.082;13.644;2023-03-20T06:07:04;101485.35;;;12.95;100.00
31519;BME280;18129;45.082;13.644;2023-03-20T06:09:31;101484.36;;;13.05;100.00
31519;BME280;18129;45.082;13.644;2023-03-20T06:11:58;101487.27;;;13.29;100.00
31519;BME280;18129;45.082;13.644;2023-03-20T06:14:25;101488.48;;;13.51;100.00
31519;BME280;18129;45.082;13.644;2023-03-20T06:16:52;101490.55;;;13.42;100.00
31519;BME280;18129;45.082;13.644;2023-03-20T06:19:20;101492.30;;;13.35;100.00
31519;BME280;18129;45.082;13.644;2023-03-20T06:21:48;101491.75;;;13.79;100.00
31519;BME280;18129;45.082;13.644;2023-03-20T06:24:15;101495.30;;;13.78;100.00
31519;BME280;18129;45.082;13.644;2023-03-20T06:26:43;101494.93;;;13.73;100.00
31519;BME280;18129;45.082;13.644;2023-03-20T06:29:10;101494.47;;;13.48;100.00
31519;BME280;18129;45.082;13.644;2023-03-20T06:31:38;101498.73;;;13.54;100.00
31519;BME280;18129;45.082;13.644;2023-03-20T06:34:05;101499.54;;;13.44;100.00
31519;BME280;18129;45.082;13.644;2023-03-20T06:36:33;101500.96;;;13.73;100.00
31519;BME280;18129;45.082;13.644;2023-03-20T06:39:01;101500.66;;;13.11;100.00
31519;BME280;18129;45.082;13.644;2023-03-20T06:41:28;101505.65;;;12.53;100.00
31519;BME280;18129;45.082;13.644;2023-03-20T06:43:56;101504.97;;;13.32;100.00
31519;BME280;18129;45.082;13.644;2023-03-20T06:46:23;101503.91;;;13.24;100.00
31519;BME280;18129;45.082;13.644;2023-03-20T06:48:51;101503.55;;;13.12;100.00
31519;BME280;18129;45.082;13.644;2023-03-20T06:51:17;101503.73;;;13.78;100.00
31519;BME280;18129;45.082;13.644;2023-03-20T06:53:44;101502.99;;;13.03;100.00
31519;BME280;18129;45.082;13.644;2023-03-20T06:56:12;101504.22;;;13.05;100.00
31519;BME280;18129;45.082;13.644;2023-03-20T06:58:39;101508.41;;;13.44;100.00
31519;BME280;18129;45.082;13.644;2023-03-20T07:01:09;101510.20;;;13.71;100.00
31519;BME280;18129;45.082;13.644;2023-03-20T07:03:36;101510.85;;;13.70;100.00
31519;BME280;18129;45.082;13.644;2023-03-20T07:06:04;101513.38;;;13.39;100.00
31519;BME280;18129;45.082;13.644;2023-03-20T07:08:32;101512.65;;;13.29;100.00
31519;BME280;18129;45.082;13.644;2023-03-20T07:10:59;101516.11;;;13.07;100.00
31519;BME280;18129;45.082;13.644;2023-03-20T07:13:27;101514.32;;;13.88;100.00
31519;BME280;18129;45.082;13.644;2023-03-20T07:15:54;101513.59;;;13.46;100.00
31519;BME280;18129;45.082;13.644;2023-03-20T07:18:21;101512.92;;;13.85;100.00
31519;BME280;18129;45.082;13.644;2023-03-20T07:20:50;101513.71;;;13.81;100.00
31519;BME280;18129;45.082;13.644;2023-03-20T07:23:17;101516.35;;;13.91;100.00
31519;BME280;18129;45.082;13.644;2023-03-20T07:25:44;101516.30;;;13.82;100.00
31519;BME280;18129;45.082;13.644;2023-03-20T07:28:11;101518.55;;;14.19;100.00
31519;BME280;18129;45.082;13.644;2023-03-20T07:30:39;101522.54;;;14.01;100.00
31519;BME280;18129;45.082;13.644;2023-03-20T07:33:06;101526.53;;;14.34;100.00
31519;BME280;18129;45.082;13.644;2023-03-20T07:35:34;101527.91;;;14.10;100.00
31519;BME280;18129;45.082;13.644;2023-03-20T07:38:01;101531.36;;;13.91;100.00
31519;BME280;18129;45.082;13.644;2023-03-20T07:40:29;101530.96;;;13.88;100.00
31519;BME280;18129;45.082;13.644;2023-03-20T07:42:56;101531.24;;;14.07;100.00
31519;BME280;18129;45.082;13.644;2023-03-20T07:45:24;101532.55;;;14.13;100.00
31519;BME280;18129;45.082;13.644;2023-03-20T07:47:51;101530.85;;;14.37;100.00
31519;BME280;18129;45.082;13.644;2023-03-20T07:50:19;101530.76;;;14.85;100.00
31519;BME280;18129;45.082;13.644;2023-03-20T07:52:46;101533.99;;;15.12;100.00
31519;BME280;18129;45.082;13.644;2023-03-20T07:55:14;101534.73;;;15.20;100.00
31519;BME280;18129;45.082;13.644;2023-03-20T07:57:41;101539.97;;;15.21;100.00
31519;BME280;18129;45.082;13.644;2023-03-20T08:00:10;101541.85;;;14.79;100.00
31519;BME280;18129;45.082;13.644;2023-03-20T08:02:37;101545.30;;;15.07;99.92
31519;BME280;18129;45.082;13.644;2023-03-20T08:05:05;101547.61;;;15.15;98.85
31519;BME280;18129;45.082;13.644;2023-03-20T08:07:32;101547.50;;;15.08;99.37
31519;BME280;18129;45.082;13.644;2023-03-20T08:10:00;101550.79;;;15.63;98.02
31519;BME280;18129;45.082;13.644;2023-03-20T08:12:27;101551.79;;;15.00;98.05
31519;BME280;18129;45.082;13.644;2023-03-20T08:14:55;101550.97;;;15.21;95.54
31519;BME280;18129;45.082;13.644;2023-03-20T08:17:22;101552.41;;;15.06;95.98
31519;BME280;18129;45.082;13.644;2023-03-20T08:19:50;101553.58;;;15.08;96.03
31519;BME280;18129;45.082;13.644;2023-03-20T08:22:17;101554.25;;;15.91;94.61
31519;BME280;18129;45.082;13.644;2023-03-20T08:24:45;101553.20;;;15.85;94.75
31519;BME280;18129;45.082;13.644;2023-03-20T08:27:12;101555.24;;;15.68;94.94
31519;BME280;18129;45.082;13.644;2023-03-20T08:29:40;101556.55;;;16.33;93.57
31519;BME280;18129;45.082;13.644;2023-03-20T08:32:07;101557.15;;;16.32;92.45
31519;BME280;18129;45.082;13.644;2023-03-20T08:34:35;101560.87;;;15.87;90.04
31519;BME280;18129;45.082;13.644;2023-03-20T08:37:03;101560.53;;;16.00;88.93
31519;BME280;18129;45.082;13.644;2023-03-20T08:39:30;101563.02;;;16.16;89.91
31519;BME280;18129;45.082;13.644;2023-03-20T08:41:58;101564.02;;;15.86;89.04
31519;BME280;18129;45.082;13.644;2023-03-20T08:44:25;101563.27;;;16.23;88.37
31519;BME280;18129;45.082;13.644;2023-03-20T08:46:53;101567.39;;;16.23;87.76
31519;BME280;18129;45.082;13.644;2023-03-20T08:49:20;101566.40;;;16.03;86.89
31519;BME280;18129;45.082;13.644;2023-03-20T08:51:47;101570.06;;;16.01;88.06
31519;BME280;18129;45.082;13.644;2023-03-20T08:54:15;101573.50;;;15.70;89.91
31519;BME280;18129;45.082;13.644;2023-03-20T08:56:42;101575.75;;;15.27;91.47
31519;BME280;18129;45.082;13.644;2023-03-20T08:59:10;101573.78;;;15.38;92.89
31519;BME280;18129;45.082;13.644;2023-03-20T09:01:37;101577.32;;;14.50;98.93
31519;BME280;18129;45.082;13.644;2023-03-20T09:04:05;101574.99;;;15.03;97.29
31519;BME280;18129;45.082;13.644;2023-03-20T09:06:35;101582.94;;;13.26;100.00
31519;BME280;18129;45.082;13.644;2023-03-20T09:09:03;101584.83;;;13.67;100.00
31519;BME280;18129;45.082;13.644;2023-03-20T09:11:30;101583.81;;;13.85;100.00
31519;BME280;18129;45.082;13.644;2023-03-20T09:13:58;101587.09;;;13.92;100.00
31519;BME280;18129;45.082;13.644;2023-03-20T09:16:26;101587.52;;;13.59;100.00
31519;BME280;18129;45.082;13.644;2023-03-20T09:18:53;101591.24;;;13.98;100.00
31519;BME280;18129;45.082;13.644;2023-03-20T09:21:20;101591.70;;;14.01;100.00
31519;BME280;18129;45.082;13.644;2023-03-20T09:23:47;101588.28;;;14.24;100.00
31519;BME280;18129;45.082;13.644;2023-03-20T09:26:14;101591.57;;;14.07;100.00
31519;BME280;18129;45.082;13.644;2023-03-20T09:28:42;101588.80;;;14.37;100.00
31519;BME280;18129;45.082;13.644;2023-03-20T09:31:09;101591.30;;;14.61;100.00
31519;BME280;18129;45.082;13.644;2023-03-20T09:33:37;101590.90;;;13.36;100.00
31519;BME280;18129;45.082;13.644;2023-03-20T09:36:05;101590.41;;;14.16;100.00
31519;BME280;18129;45.082;13.644;2023-03-20T09:38:32;101591.50;;;14.06;100.00
31519;BME280;18129;45.082;13.644;2023-03-20T09:41:00;101588.75;;;13.55;100.00
31519;BME280;18129;45.082;13.644;2023-03-20T09:43:38;101591.31;;;13.18;100.00
31519;BME280;18129;45.082;13.644;2023-03-20T09:46:17;101591.49;;;12.85;100.00
31519;BME280;18129;45.082;13.644;2023-03-20T09:48:48;101592.36;;;13.31;100.00
31519;BME280;18129;45.082;13.644;2023-03-20T09:51:23;101590.85;;;13.49;100.00
31519;BME280;18129;45.082;13.644;2023-03-20T09:53:56;101585.29;;;13.32;100.00
31519;BME280;18129;45.082;13.644;2023-03-20T09:56:26;101582.64;;;13.87;100.00
31519;BME280;18129;45.082;13.644;2023-03-20T09:58:56;101582.94;;;13.90;100.00
31519;BME280;18129;45.082;13.644;2023-03-20T10:01:28;101585.34;;;14.19;100.00
31519;BME280;18129;45.082;13.644;2023-03-20T10:03:59;101586.72;;;14.12;100.00
31519;BME280;18129;45.082;13.644;2023-03-20T10:06:27;101587.46;;;13.81;100.00
31519;BME280;18129;45.082;13.644;2023-03-20T10:08:54;101585.37;;;13.30;100.00
31519;BME280;18129;45.082;13.644;2023-03-20T10:11:41;101587.33;;;13.87;100.00
31519;BME280;18129;45.082;13.644;2023-03-20T10:14:22;101584.89;;;14.08;100.00
31519;BME280;18129;45.082;13.644;2023-03-20T10:17:04;101579.01;;;14.51;100.00
31519;BME280;18129;45.082;13.644;2023-03-20T10:19:39;101579.45;;;14.62;100.00
31519;BME280;18129;45.082;13.644;2023-03-20T10:22:16;101576.98;;;14.94;100.00
31519;BME280;18129;45.082;13.644;2023-03-20T10:24:52;101578.51;;;14.49;100.00
31519;BME280;18129;45.082;13.644;2023-03-20T10:27:23;101572.25;;;14.95;100.00
31519;BME280;18129;45.082;13.644;2023-03-20T10:29:59;101570.52;;;15.30;100.00
31519;BME280;18129;45.082;13.644;2023-03-20T10:32:34;101568.57;;;15.39;100.00
31519;BME280;18129;45.082;13.644;2023-03-20T10:35:14;101567.25;;;15.57;100.00
31519;BME280;18129;45.082;13.644;2023-03-20T10:37:53;101565.86;;;15.44;100.00
31519;BME280;18129;45.082;13.644;2023-03-20T10:40:28;101568.23;;;15.73;100.00
31519;BME280;18129;45.082;13.644;2023-03-20T10:43:00;101564.66;;;15.47;100.00
31519;BME280;18129;45.082;13.644;2023-03-20T10:45:33;101564.88;;;15.27;100.00
31519;BME280;18129;45.082;13.644;2023-03-20T10:48:05;101561.34;;;14.44;100.00
31519;BME280;18129;45.082;13.644;2023-03-20T10:50:39;101567.84;;;15.71;100.00
31519;BME280;18129;45.082;13.644;2023-03-20T10:53:07;101566.30;;;15.70;100.00
31519;BME280;18129;45.082;13.644;2023-03-20T10:55:38;101564.25;;;15.61;100.00
31519;BME280;18129;45.082;13.644;2023-03-20T10:58:14;101563.15;;;15.86;100.00
31519;BME280;18129;45.082;13.644;2023-03-20T11:00:44;101563.14;;;14.81;100.00
31519;BME280;18129;45.082;13.644;2023-03-20T11:03:20;101559.66;;;14.75;100.00
31519;BME280;18129;45.082;13.644;2023-03-20T11:05:52;101557.72;;;15.44;100.00
31519;BME280;18129;45.082;13.644;2023-03-20T11:08:23;101556.22;;;15.14;100.00
31519;BME280;18129;45.082;13.644;2023-03-20T11:10:58;101554.52;;;15.34;100.00
31519;BME280;18129;45.082;13.644;2023-03-20T11:13:30;101554.08;;;15.54;100.00
31519;BME280;18129;45.082;13.644;2023-03-20T11:16:09;101556.54;;;15.93;100.00
31519;BME280;18129;45.082;13.644;2023-03-20T11:18:37;101552.42;;;16.24;100.00
31519;BME280;18129;45.082;13.644;2023-03-20T11:21:13;101547.32;;;15.97;98.99
31519;BME280;18129;45.082;13.644;2023-03-20T11:23:41;101548.86;;;16.43;98.16
31519;BME280;18129;45.082;13.644;2023-03-20T11:26:12;101547.82;;;16.01;97.76
31519;BME280;18129;45.082;13.644;2023-03-20T11:28:41;101550.42;;;15.78;97.62
31519;BME280;18129;45.082;13.644;2023-03-20T11:31:17;101544.22;;;14.98;98.52
31519;BME280;18129;45.082;13.644;2023-03-20T11:33:50;101545.57;;;15.56;98.41
31519;BME280;18129;45.082;13.644;2023-03-20T11:36:23;101541.84;;;15.71;98.72
31519;BME280;18129;45.082;13.644;2023-03-20T11:38:51;101540.81;;;15.21;99.66
31519;BME280;18129;45.082;13.644;2023-03-20T11:41:23;101536.37;;;15.79;98.44
31519;BME280;18129;45.082;13.644;2023-03-20T11:43:51;101535.98;;;15.00;100.00
31519;BME280;18129;45.082;13.644;2023-03-20T11:46:20;101535.42;;;14.97;100.00
31519;BME280;18129;45.082;13.644;2023-03-20T11:49:02;101534.79;;;15.26;100.00
31519;BME280;18129;45.082;13.644;2023-03-20T11:51:30;101533.65;;;14.37;100.00
31519;BME280;18129;45.082;13.644;2023-03-20T11:54:00;101531.24;;;14.26;100.00
31519;BME280;18129;45.082;13.644;2023-03-20T11:56:28;101525.04;;;14.75;100.00
31519;BME280;18129;45.082;13.644;2023-03-20T11:58:59;101523.22;;;14.74;100.00
31519;BME280;18129;45.082;13.644;2023-03-20T12:01:28;101520.99;;;15.71;100.00
31519;BME280;18129;45.082;13.644;2023-03-20T12:04:05;101520.93;;;14.64;100.00
31519;BME280;18129;45.082;13.644;2023-03-20T12:06:42;101521.90;;;15.10;100.00
31519;BME280;18129;45.082;13.644;2023-03-20T12:09:22;101516.64;;;15.79;97.27
31519;BME280;18129;45.082;13.644;2023-03-20T12:11:54;101513.38;;;15.98;97.26
31519;BME280;18129;45.082;13.644;2023-03-20T12:14:29;101512.36;;;15.27;95.86
31519;BME280;18129;45.082;13.644;2023-03-20T12:17:22;101504.64;;;15.48;97.08
31519;BME280;18129;45.082;13.644;2023-03-20T12:19:52;101495.80;;;16.21;96.25
31519;BME280;18129;45.082;13.644;2023-03-20T12:22:24;101494.22;;;16.58;93.68
31519;BME280;18129;45.082;13.644;2023-03-20T12:24:57;101490.50;;;16.79;92.50
31519;BME280;18129;45.082;13.644;2023-03-20T12:27:31;101487.91;;;17.17;89.98
31519;BME280;18129;45.082;13.644;2023-03-20T12:30:05;101487.52;;;17.09;89.56
31519;BME280;18129;45.082;13.644;2023-03-20T12:32:41;101485.97;;;17.38;87.92
31519;BME280;18129;45.082;13.644;2023-03-20T12:35:12;101484.58;;;17.10;86.84
31519;BME280;18129;45.082;13.644;2023-03-20T12:37:40;101483.70;;;17.26;85.71
31519;BME280;18129;45.082;13.644;2023-03-20T12:40:12;101480.47;;;17.45;85.30
31519;BME280;18129;45.082;13.644;2023-03-20T12:42:51;101484.49;;;15.85;87.71
31519;BME280;18129;45.082;13.644;2023-03-20T12:45:22;101477.77;;;16.62;86.09
31519;BME280;18129;45.082;13.644;2023-03-20T12:48:02;101480.20;;;15.92;88.50
31519;BME280;18129;45.082;13.644;2023-03-20T12:50:35;101474.55;;;16.78;86.30